Terminal Aerodrome Forecast
Issued by NWS

Current Version | Previous Version | Graphics & Text | Print | Product List | Glossary On
Versions: 1 2 3 4 5 6 7 8 9 10 11 12 13
058
FTUS41 KPBZ 201127
TAFMGW
TAF
KMGW 201127Z 2012/2112 23007KT P6SM SCT035
     FM201700 21010KT P6SM SKC
     FM210900 19006KT P6SM SKC WS020/22040KT=

USA.gov is the U.S. government's official web portal to all federal, state and local government web resources and services.